Time;durP1;ratioP1;P1;durP2;ratioP2;P2;SDS_P1;SDS_P2;PMS_P1;PMS_P2;Temp;Humidity;BMP_temperature;BMP_pressure;BME280_temperature;BME280_humidity;BME280_pressure;Samples;Min_cycle;Max_cycle;Signal;HPM_P1;HPM_P2
2022/05/06 00:01:56;;;;;;;1.20;1.10;;;20.00;44.10;;;;;;5085041;28;20052;-73
2022/05/06 00:04:24;;;;;;;1.20;1.00;;;19.90;44.00;;;;;;5091900;28;20028;-70
2022/05/06 00:06:50;;;;;;;1.10;0.90;;;19.90;44.20;;;;;;5091434;28;20184;-71
2022/05/06 00:09:16;;;;;;;1.70;1.10;;;19.90;44.20;;;;;;5076688;28;20028;-71
2022/05/06 00:11:42;;;;;;;1.45;1.23;;;19.90;44.30;;;;;;5085277;28;20078;-72
2022/05/06 00:14:08;;;;;;;1.48;1.30;;;19.80;44.50;;;;;;5096550;28;20031;-72
2022/05/06 00:16:33;;;;;;;1.25;1.10;;;19.80;44.80;;;;;;5079193;28;20077;-71
2022/05/06 00:18:59;;;;;;;2.45;1.30;;;19.80;44.80;;;;;;5074848;28;20074;-71
2022/05/06 00:21:25;;;;;;;1.60;1.48;;;19.80;44.90;;;;;;5090330;28;20020;-71
2022/05/06 00:23:50;;;;;;;1.88;1.45;;;19.70;45.00;;;;;;5083225;28;20120;-72
2022/05/06 00:26:18;;;;;;;2.22;1.45;;;19.70;45.20;;;;;;5086553;28;20085;-71
2022/05/06 00:28:44;;;;;;;1.83;1.30;;;19.70;45.40;;;;;;5092789;28;20020;-71
2022/05/06 00:31:10;;;;;;;4.00;1.52;;;19.70;45.70;;;;;;5093702;28;20061;-72
2022/05/06 00:33:36;;;;;;;1.50;1.40;;;19.70;45.60;;;;;;5075651;28;20024;-72
2022/05/06 00:36:03;;;;;;;2.53;1.63;;;19.60;45.70;;;;;;5075664;28;20074;-72
2022/05/06 00:38:32;;;;;;;2.75;2.00;;;19.60;46.00;;;;;;5077606;28;20028;-71
2022/05/06 00:40:58;;;;;;;3.03;2.17;;;19.60;46.30;;;;;;5083176;28;20563;-72
2022/05/06 00:43:27;;;;;;;2.40;1.98;;;19.60;46.40;;;;;;5078181;28;20028;-72
2022/05/06 00:45:55;;;;;;;2.08;1.80;;;19.60;46.30;;;;;;5088594;28;20021;-71
2022/05/06 00:48:28;;;;;;;2.83;1.70;;;19.60;46.50;;;;;;5074308;28;20479;-71
2022/05/06 00:50:58;;;;;;;2.58;2.13;;;19.60;46.50;;;;;;5077304;28;20070;-71
2022/05/06 00:53:24;;;;;;;2.05;1.67;;;19.50;46.60;;;;;;5087652;28;20020;-70
2022/05/06 00:55:52;;;;;;;2.35;1.70;;;19.50;46.50;;;;;;5094835;28;20496;-72
2022/05/06 00:58:19;;;;;;;2.72;1.90;;;19.50;46.70;;;;;;5094210;28;20039;-71
2022/05/06 01:00:46;;;;;;;2.88;1.90;;;19.50;47.00;;;;;;5095256;28;20048;-71
2022/05/06 01:03:12;;;;;;;2.00;1.65;;;19.40;47.40;;;;;;5093849;28;20059;-71
2022/05/06 01:05:41;;;;;;;4.30;1.70;;;19.40;47.50;;;;;;5095231;28;20051;-72
2022/05/06 01:08:09;;;;;;;3.50;2.15;;;19.40;47.60;;;;;;5090454;28;20032;-71
2022/05/06 01:10:37;;;;;;;2.45;1.92;;;19.40;47.40;;;;;;5075099;28;20028;-71
2022/05/06 01:13:03;;;;;;;2.92;2.28;;;19.40;47.50;;;;;;5076817;28;20031;-71
2022/05/06 01:15:29;;;;;;;1.77;1.60;;;19.40;47.60;;;;;;5093751;28;20024;-71
2022/05/06 01:17:57;;;;;;;3.65;2.00;;;19.30;47.50;;;;;;5093854;28;20069;-72
2022/05/06 01:20:24;;;;;;;3.22;2.03;;;19.30;47.80;;;;;;5086809;28;20056;-71
2022/05/06 01:22:56;;;;;;;2.47;2.15;;;19.30;47.80;;;;;;5074611;28;20028;-71
2022/05/06 01:25:22;;;;;;;2.22;1.85;;;19.30;47.90;;;;;;5074923;28;20493;-71
2022/05/06 01:27:55;;;;;;;2.17;1.73;;;19.30;47.90;;;;;;5073595;28;20086;-71
2022/05/06 01:30:38;;;;;;;2.40;2.00;;;19.20;48.10;;;;;;5075553;28;20037;-71
2022/05/06 01:33:06;;;;;;;2.47;2.10;;;19.20;48.30;;;;;;5094840;28;20032;-72
2022/05/06 01:35:43;;;;;;;2.13;1.92;;;19.20;48.20;;;;;;5081670;28;20020;-72
2022/05/06 01:38:11;;;;;;;2.78;2.25;;;19.20;48.50;;;;;;5078094;28;20021;-72
2022/05/06 01:40:42;;;;;;;2.97;2.65;;;19.20;48.40;;;;;;5084204;28;20477;-72
2022/05/06 01:43:13;;;;;;;3.38;2.72;;;19.20;48.50;;;;;;5094644;28;20030;-71
2022/05/06 01:45:41;;;;;;;3.22;2.42;;;19.10;48.40;;;;;;5094763;28;20051;-72
2022/05/06 01:48:08;;;;;;;4.28;3.38;;;19.10;48.80;;;;;;5082569;28;20461;-72
2022/05/06 01:50:38;;;;;;;2.97;2.60;;;19.10;48.80;;;;;;5085598;28;20478;-71
2022/05/06 01:53:05;;;;;;;4.10;2.80;;;19.10;48.80;;;;;;5074080;28;20036;-72
2022/05/06 01:55:31;;;;;;;2.97;2.60;;;19.10;49.00;;;;;;5072312;28;20106;-71
2022/05/06 01:57:57;;;;;;;2.88;2.53;;;19.10;48.90;;;;;;5078633;28;20048;-71
2022/05/06 02:00:22;;;;;;;4.15;3.20;;;19.10;49.00;;;;;;5084662;28;20044;-71
2022/05/06 02:02:48;;;;;;;3.72;2.92;;;19.20;49.20;;;;;;5074058;28;20032;-72
2022/05/06 02:05:17;;;;;;;5.63;3.53;;;19.10;49.00;;;;;;5073871;28;20029;-71
2022/05/06 02:07:48;;;;;;;4.13;3.00;;;19.20;49.20;;;;;;5073918;28;20031;-72
2022/05/06 02:10:17;;;;;;;5.15;3.00;;;19.10;49.20;;;;;;5079225;28;20028;-71
2022/05/06 02:12:47;;;;;;;4.43;3.35;;;19.20;49.20;;;;;;5093938;28;20512;-71
2022/05/06 02:15:17;;;;;;;4.65;2.67;;;19.20;49.20;;;;;;5094010;28;20077;-71
2022/05/06 02:17:43;;;;;;;4.25;2.70;;;19.10;48.90;;;;;;5091068;28;20024;-71
2022/05/06 02:20:12;;;;;;;3.25;2.78;;;19.10;48.90;;;;;;5086926;28;20031;-71
2022/05/06 02:22:42;;;;;;;3.92;2.67;;;19.10;49.00;;;;;;5093691;28;20055;-71
2022/05/06 02:25:09;;;;;;;3.10;2.53;;;19.10;49.20;;;;;;5093803;28;20017;-72
2022/05/06 02:27:36;;;;;;;3.42;2.80;;;19.10;49.10;;;;;;5081614;28;20059;-71
2022/05/06 02:35:32;;;;;;;3.67;2.67;;;19.10;49.10;;;;;;5093001;28;20066;-72
2022/05/06 02:37:57;;;;;;;4.75;3.10;;;19.00;49.20;;;;;;5093607;28;20028;-71
2022/05/06 02:40:23;;;;;;;4.13;2.92;;;19.00;49.50;;;;;;5085620;28;20102;-72
2022/05/06 02:42:49;;;;;;;3.25;2.92;;;19.00;49.80;;;;;;5071968;28;20029;-72
2022/05/06 02:45:14;;;;;;;4.45;2.50;;;19.00;50.00;;;;;;5083609;28;20085;-71
2022/05/06 02:47:40;;;;;;;5.13;2.50;;;19.00;49.90;;;;;;5078849;28;20362;-71
2022/05/06 02:50:06;;;;;;;3.67;2.90;;;19.00;49.70;;;;;;5075983;28;20115;-71
2022/05/06 02:52:32;;;;;;;3.63;3.00;;;19.00;50.00;;;;;;5073220;28;20056;-71
2022/05/06 02:54:58;;;;;;;4.68;2.72;;;19.00;50.00;;;;;;5073266;28;20138;-71
2022/05/06 02:57:24;;;;;;;3.67;3.10;;;19.00;50.10;;;;;;5073149;28;20017;-71
2022/05/06 02:59:49;;;;;;;3.10;2.65;;;19.00;50.30;;;;;;5073878;28;20099;-72
2022/05/06 03:02:15;;;;;;;3.67;2.85;;;19.00;50.20;;;;;;5093371;28;20081;-71
2022/05/06 03:04:41;;;;;;;3.38;2.85;;;18.90;50.10;;;;;;5093276;28;20031;-71
2022/05/06 03:07:08;;;;;;;4.25;2.75;;;19.00;50.20;;;;;;5092437;28;20057;-71
2022/05/06 03:09:35;;;;;;;4.60;3.35;;;18.90;50.10;;;;;;5093250;28;20020;-71
2022/05/06 03:12:01;;;;;;;3.28;2.78;;;18.90;50.40;;;;;;5092565;28;20552;-72
2022/05/06 03:14:27;;;;;;;4.03;3.05;;;18.90;50.60;;;;;;5091907;28;20108;-71
2022/05/06 03:16:52;;;;;;;6.32;3.72;;;18.90;50.60;;;;;;5080227;28;20062;-72
2022/05/06 03:19:19;;;;;;;3.20;2.90;;;18.90;50.70;;;;;;5073198;28;20093;-71
2022/05/06 03:21:51;;;;;;;6.38;3.45;;;18.90;50.60;;;;;;5089599;28;20428;-72
2022/05/06 03:24:17;;;;;;;4.70;3.70;;;18.90;50.80;;;;;;5078104;28;20052;-71
2022/05/06 03:26:43;;;;;;;5.32;3.60;;;18.90;50.60;;;;;;5088368;28;20431;-72
2022/05/06 03:29:09;;;;;;;4.65;3.88;;;18.80;50.40;;;;;;5072768;28;20021;-72
2022/05/06 03:31:36;;;;;;;4.93;3.70;;;18.90;50.70;;;;;;5071558;28;20431;-71
2022/05/06 03:34:03;;;;;;;4.63;3.72;;;18.80;50.60;;;;;;5087216;28;20379;-71
2022/05/06 03:36:29;;;;;;;4.50;3.45;;;18.80;50.50;;;;;;5072364;28;20025;-71
2022/05/06 03:38:55;;;;;;;4.57;3.67;;;18.80;50.50;;;;;;5072620;28;20024;-71
2022/05/06 03:41:21;;;;;;;4.93;3.75;;;18.80;50.60;;;;;;5072541;28;20016;-71
2022/05/06 03:43:47;;;;;;;9.07;5.25;;;18.80;50.50;;;;;;5076928;28;20028;-71
2022/05/06 03:46:13;;;;;;;4.35;3.88;;;18.80;51.00;;;;;;5077818;28;20074;-71
2022/05/06 03:48:39;;;;;;;4.95;4.00;;;18.80;50.80;;;;;;5075452;28;20406;-71
2022/05/06 03:51:21;;;;;;;4.68;3.78;;;18.80;50.80;;;;;;5076567;28;20020;-71
2022/05/06 03:53:52;;;;;;;14.13;4.25;;;18.80;50.90;;;;;;5075361;28;20539;-71
2022/05/06 03:56:19;;;;;;;7.28;4.22;;;18.80;50.90;;;;;;5087346;28;20024;-71
2022/05/06 03:58:45;;;;;;;5.68;3.95;;;18.80;51.10;;;;;;5083511;28;20020;-73
2022/05/06 04:01:11;;;;;;;4.82;4.20;;;18.80;50.90;;;;;;5076335;28;20124;-71
2022/05/06 04:03:38;;;;;;;5.72;4.30;;;18.80;51.10;;;;;;5076447;28;20031;-71
2022/05/06 04:06:05;;;;;;;6.53;4.90;;;18.80;51.30;;;;;;5076203;28;20021;-71
2022/05/06 04:08:32;;;;;;;7.07;4.30;;;18.80;51.30;;;;;;5075008;28;20363;-70
2022/05/06 04:10:58;;;;;;;5.88;4.80;;;18.80;51.30;;;;;;5080316;28;20024;-71
2022/05/06 04:13:24;;;;;;;5.72;4.43;;;18.80;51.70;;;;;;5076378;28;20029;-71
2022/05/06 04:15:50;;;;;;;5.03;3.97;;;18.80;51.70;;;;;;5076150;28;20025;-71
2022/05/06 04:18:17;;;;;;;6.32;4.18;;;18.80;51.60;;;;;;5074807;28;20085;-71
2022/05/06 04:23:30;;;;;;;5.70;4.55;;;18.80;51.60;;;;;;5095507;28;20088;-71
2022/05/06 04:26:07;;;;;;;6.28;4.88;;;18.90;51.70;;;;;;5089048;28;20481;-71
2022/05/06 04:28:34;;;;;;;5.43;4.88;;;18.80;51.80;;;;;;5075909;28;20077;-71
2022/05/06 04:31:00;;;;;;;10.40;5.30;;;18.90;51.80;;;;;;5077615;28;20338;-71
2022/05/06 04:33:26;;;;;;;6.57;5.05;;;18.90;51.80;;;;;;5096000;28;20020;-71
2022/05/06 04:35:54;;;;;;;5.28;4.43;;;18.80;51.90;;;;;;5094894;28;20388;-71
2022/05/06 04:38:22;;;;;;;6.80;5.57;;;18.90;51.90;;;;;;5096065;28;20216;-70
2022/05/06 04:40:48;;;;;;;6.78;5.10;;;18.90;51.90;;;;;;5095353;28;20145;-71
2022/05/06 04:43:17;;;;;;;6.53;5.00;;;18.90;51.90;;;;;;5086793;28;20036;-73
2022/05/06 04:45:43;;;;;;;7.53;4.78;;;18.90;52.00;;;;;;5075596;28;20020;-71
2022/05/06 04:48:11;;;;;;;5.70;4.72;;;18.90;52.00;;;;;;5074065;28;20025;-71
2022/05/06 04:50:38;;;;;;;9.05;4.78;;;19.00;52.10;;;;;;5075625;28;20436;-71
2022/05/06 04:53:07;;;;;;;7.13;5.10;;;19.00;52.00;;;;;;5074136;28;20074;-71
2022/05/06 04:55:37;;;;;;;7.57;6.32;;;19.00;52.20;;;;;;5075238;28;20012;-72
2022/05/06 04:58:04;;;;;;;5.28;4.55;;;19.10;52.20;;;;;;5075319;28;20040;-70
2022/05/06 05:00:30;;;;;;;10.55;4.93;;;19.10;52.10;;;;;;5073398;28;20390;-71
2022/05/06 05:02:57;;;;;;;6.10;4.35;;;19.10;52.10;;;;;;5076034;28;20029;-70
2022/05/06 05:05:24;;;;;;;6.78;5.35;;;19.10;52.00;;;;;;5075297;28;20020;-71
2022/05/06 05:07:56;;;;;;;7.72;5.63;;;19.20;52.10;;;;;;5075092;28;20052;-74
2022/05/06 05:10:22;;;;;;;6.88;5.18;;;19.20;52.10;;;;;;5075209;28;20029;-71
2022/05/06 05:12:48;;;;;;;10.55;5.18;;;19.30;52.10;;;;;;5079506;28;20481;-70
2022/05/06 05:15:17;;;;;;;6.25;4.95;;;19.30;52.10;;;;;;5095429;28;20021;-71
2022/05/06 05:17:44;;;;;;;7.05;5.65;;;19.40;52.10;;;;;;5075741;28;20021;-71
2022/05/06 05:20:11;;;;;;;6.30;4.85;;;19.40;51.90;;;;;;5078298;28;20444;-71
2022/05/06 05:22:37;;;;;;;5.32;4.72;;;19.50;52.00;;;;;;5091133;28;20481;-71
2022/05/06 05:25:04;;;;;;;6.68;5.53;;;19.50;51.90;;;;;;5073568;28;20024;-71
2022/05/06 05:27:31;;;;;;;6.65;5.35;;;19.60;52.00;;;;;;5086143;28;20059;-71
2022/05/06 05:29:58;;;;;;;5.50;4.53;;;19.60;51.90;;;;;;5078563;28;20024;-71
2022/05/06 05:32:24;;;;;;;7.00;4.90;;;19.60;51.80;;;;;;5073321;28;20037;-71
2022/05/06 05:34:50;;;;;;;8.57;5.78;;;19.70;51.70;;;;;;5072701;28;20029;-71
2022/05/06 05:37:16;;;;;;;6.05;4.93;;;19.70;51.60;;;;;;5083811;28;20039;-71
2022/05/06 05:39:41;;;;;;;7.40;5.35;;;19.80;51.60;;;;;;5094851;28;20020;-72
2022/05/06 05:42:08;;;;;;;7.22;5.53;;;19.90;51.60;;;;;;5087298;28;20359;-71
2022/05/06 05:50:06;;;;;;;7.45;5.10;;;20.00;51.30;;;;;;5078131;28;20035;-72
2022/05/06 05:52:33;;;;;;;7.35;5.30;;;20.10;51.30;;;;;;5094351;28;20028;-72
2022/05/06 05:54:59;;;;;;;7.57;5.55;;;20.20;51.20;;;;;;5093459;28;20043;-72
2022/05/06 05:57:24;;;;;;;5.72;5.13;;;20.20;50.90;;;;;;5090884;28;20462;-71
2022/05/06 05:59:50;;;;;;;7.65;5.18;;;20.20;50.60;;;;;;5084771;28;20485;-72
2022/05/06 06:02:17;;;;;;;6.13;5.47;;;20.30;50.90;;;;;;5075687;28;20020;-72
2022/05/06 06:04:43;;;;;;;10.85;5.32;;;20.40;50.80;;;;;;5074475;28;20029;-72
2022/05/06 06:07:09;;;;;;;7.57;5.07;;;20.40;50.90;;;;;;5090614;28;20053;-72
2022/05/06 06:09:36;;;;;;;6.95;5.18;;;20.40;50.70;;;;;;5094500;28;20051;-71
2022/05/06 06:12:02;;;;;;;8.27;7.15;;;20.50;50.70;;;;;;5087494;28;20090;-73
2022/05/06 06:14:28;;;;;;;8.90;6.95;;;20.50;50.00;;;;;;5076490;28;20028;-73
2022/05/06 06:16:54;;;;;;;7.90;6.68;;;20.50;49.50;;;;;;5073932;28;20078;-72
2022/05/06 06:19:20;;;;;;;8.25;7.00;;;20.50;49.50;;;;;;5073996;28;20020;-73
2022/05/06 06:21:45;;;;;;;9.32;7.25;;;20.50;49.40;;;;;;5073823;28;20016;-72
2022/05/06 06:24:12;;;;;;;14.75;7.75;;;20.50;49.30;;;;;;5090777;28;20043;-72
2022/05/06 06:26:38;;;;;;;9.90;7.65;;;20.50;49.40;;;;;;5094097;28;20077;-72
2022/05/06 06:29:04;;;;;;;10.88;7.38;;;20.60;49.10;;;;;;5092049;28;20016;-72
2022/05/06 06:31:31;;;;;;;9.40;6.80;;;20.60;49.10;;;;;;5092542;28;20039;-73
2022/05/06 06:33:59;;;;;;;10.32;7.70;;;20.60;49.10;;;;;;5089880;28;20028;-72
2022/05/06 06:36:25;;;;;;;9.57;7.10;;;20.60;48.90;;;;;;5093659;28;20469;-72
2022/05/06 06:38:51;;;;;;;13.43;6.63;;;20.70;48.90;;;;;;5091354;28;20122;-73
2022/05/06 06:41:17;;;;;;;9.73;7.10;;;20.70;49.00;;;;;;5088858;28;20029;-72
2022/05/06 06:43:42;;;;;;;8.15;6.90;;;20.80;48.70;;;;;;5093420;28;20465;-72
2022/05/06 06:46:08;;;;;;;8.60;7.25;;;20.80;48.50;;;;;;5087737;28;20020;-72
2022/05/06 06:48:35;;;;;;;12.73;6.97;;;20.90;48.30;;;;;;5073303;28;20031;-73
2022/05/06 06:51:00;;;;;;;10.88;7.30;;;21.00;48.30;;;;;;5074359;28;20037;-72
2022/05/06 06:53:26;;;;;;;11.25;7.75;;;21.00;48.20;;;;;;5082072;28;20428;-72
2022/05/06 06:55:52;;;;;;;8.57;7.43;;;21.10;48.10;;;;;;5072709;28;20451;-73
2022/05/06 06:58:18;;;;;;;8.02;7.05;;;21.10;47.80;;;;;;5073036;28;20028;-72
2022/05/06 07:00:44;;;;;;;9.05;8.00;;;21.20;47.80;;;;;;5073460;28;20067;-72
2022/05/06 07:03:11;;;;;;;11.20;7.70;;;21.20;47.70;;;;;;5077743;28;20040;-73
2022/05/06 07:11:52;;;;;;;8.15;7.20;;;21.30;47.50;;;;;;5093464;28;20040;-71
2022/05/06 07:13:52;;;;;;;9.48;7.25;;;21.40;47.20;;;;;;5078687;28;20035;-72
2022/05/06 07:16:17;;;;;;;9.43;6.60;;;21.50;47.20;;;;;;5072682;28;20025;-73
2022/05/06 07:18:43;;;;;;;8.57;6.80;;;21.60;47.50;;;;;;5072305;28;20385;-72
2022/05/06 07:21:09;;;;;;;8.77;7.43;;;21.70;47.50;;;;;;5072960;28;20478;-73
2022/05/06 07:23:35;;;;;;;8.95;7.15;;;21.90;46.80;;;;;;5085733;28;20031;-73
2022/05/06 07:26:00;;;;;;;8.05;6.78;;;21.90;46.80;;;;;;5093032;28;20489;-72
2022/05/06 07:28:26;;;;;;;7.13;6.43;;;22.10;46.50;;;;;;5087245;28;20478;-73
2022/05/06 07:30:52;;;;;;;8.00;7.20;;;22.20;46.40;;;;;;5081778;28;20541;-73
2022/05/06 07:33:18;;;;;;;10.00;7.50;;;22.30;46.00;;;;;;5077576;28;20425;-72
2022/05/06 07:35:43;;;;;;;7.97;6.38;;;22.40;45.60;;;;;;5072549;28;20501;-73
2022/05/06 07:38:09;;;;;;;14.98;6.53;;;22.50;45.60;;;;;;5072736;28;20024;-73
2022/05/06 07:40:35;;;;;;;8.27;6.78;;;22.60;45.50;;;;;;5074344;28;20024;-73
2022/05/06 07:43:01;;;;;;;6.97;5.93;;;22.60;45.10;;;;;;5090465;28;20494;-73
2022/05/06 07:45:26;;;;;;;8.15;6.53;;;22.70;45.20;;;;;;5082478;28;20024;-72
2022/05/06 07:47:52;;;;;;;10.23;6.35;;;22.80;45.20;;;;;;5092933;28;20085;-73
2022/05/06 07:50:18;;;;;;;8.88;6.28;;;22.90;45.20;;;;;;5092428;28;20024;-72
2022/05/06 07:52:44;;;;;;;7.43;6.57;;;23.00;45.20;;;;;;5092289;28;20020;-72
2022/05/06 07:55:13;;;;;;;11.25;6.38;;;23.10;44.50;;;;;;5091291;28;20035;-73
2022/05/06 07:57:39;;;;;;;8.27;6.78;;;23.10;44.50;;;;;;5087432;28;20016;-72
2022/05/06 08:00:06;;;;;;;8.32;6.18;;;23.20;44.50;;;;;;5082325;28;20040;-73
2022/05/06 08:05:16;;;;;;;8.35;5.85;;;23.40;44.30;;;;;;5076612;28;20072;-72
2022/05/06 08:07:43;;;;;;;11.23;6.70;;;23.50;44.00;;;;;;5072721;28;20490;-72
2022/05/06 08:10:09;;;;;;;11.02;6.50;;;23.60;43.90;;;;;;5076825;28;20477;-70
2022/05/06 08:12:35;;;;;;;7.75;6.18;;;23.60;43.10;;;;;;5075051;28;20025;-73
2022/05/06 08:15:01;;;;;;;6.60;5.57;;;23.70;43.00;;;;;;5071131;28;20028;-73
2022/05/06 08:17:27;;;;;;;7.07;5.65;;;23.70;43.00;;;;;;5092068;28;20017;-73
2022/05/06 08:19:53;;;;;;;8.40;6.60;;;23.80;43.00;;;;;;5086982;28;20162;-73
2022/05/06 08:22:18;;;;;;;9.32;6.65;;;23.80;42.70;;;;;;5083470;28;20064;-72
2022/05/06 08:24:44;;;;;;;9.70;7.22;;;23.80;42.50;;;;;;5078287;28;20024;-70
2022/05/06 08:27:11;;;;;;;8.63;6.78;;;23.80;42.40;;;;;;5082938;28;20489;-71
2022/05/06 08:29:37;;;;;;;12.43;7.85;;;23.80;42.20;;;;;;5081835;28;20095;-71
2022/05/06 08:32:03;;;;;;;10.43;6.63;;;23.70;42.30;;;;;;5091538;28;20457;-70
2022/05/06 08:34:30;;;;;;;8.32;7.40;;;23.80;42.60;;;;;;5094029;28;20099;-73
2022/05/06 08:36:56;;;;;;;8.52;7.05;;;23.70;42.30;;;;;;5087311;28;20020;-73
2022/05/06 08:39:22;;;;;;;9.02;7.13;;;23.70;42.30;;;;;;5079318;28;20025;-70
2022/05/06 08:41:49;;;;;;;10.90;7.95;;;23.70;43.00;;;;;;5081042;28;20028;-71
2022/05/06 08:52:40;;;;;;;8.82;7.53;;;23.90;42.00;;;;;;5075258;28;20504;-72
2022/05/06 08:55:06;;;;;;;9.82;8.18;;;24.00;42.10;;;;;;5076674;28;20027;-71
2022/05/06 08:57:32;;;;;;;9.68;7.60;;;24.10;41.50;;;;;;5078369;28;20029;-71
2022/05/06 08:59:58;;;;;;;11.50;7.63;;;24.10;41.30;;;;;;5075320;28;20501;-71
2022/05/06 09:02:24;;;;;;;10.63;8.90;;;24.10;40.90;;;;;;5076119;28;20032;-72
2022/05/06 09:04:50;;;;;;;10.85;7.72;;;24.10;40.80;;;;;;5075231;28;20024;-72
2022/05/06 09:07:21;;;;;;;9.52;7.07;;;24.10;40.80;;;;;;5075216;28;20028;-72
2022/05/06 09:10:15;;;;;;;11.00;7.10;;;24.10;41.20;;;;;;5077860;28;20553;-71
2022/05/06 09:12:46;;;;;;;14.45;8.73;;;24.20;41.80;;;;;;5090234;28;20484;-72
2022/05/06 09:18:03;;;;;;;10.05;7.07;;;24.50;40.70;;;;;;5081195;28;20031;-73
2022/05/06 09:20:29;;;;;;;11.73;6.55;;;24.60;41.10;;;;;;5107764;28;20031;-73
2022/05/06 09:22:55;;;;;;;8.60;7.22;;;24.70;41.20;;;;;;5106708;28;20024;-72
2022/05/06 09:25:42;;;;;;;8.32;7.28;;;24.80;40.80;;;;;;5078692;28;20471;-72
2022/05/06 09:28:30;;;;;;;12.65;7.60;;;24.80;40.40;;;;;;5085525;28;20028;-73
2022/05/06 09:31:04;;;;;;;8.45;7.43;;;24.80;39.80;;;;;;5087314;28;20020;-72
2022/05/06 09:33:32;;;;;;;9.07;6.85;;;24.80;39.50;;;;;;5089876;28;20039;-72
2022/05/06 09:35:58;;;;;;;7.45;6.65;;;24.80;39.80;;;;;;5082927;28;20021;-72
2022/05/06 09:38:25;;;;;;;6.80;6.13;;;24.80;39.90;;;;;;5077403;28;20033;-72
2022/05/06 09:40:52;;;;;;;9.40;6.85;;;24.70;40.10;;;;;;5081257;28;20035;-73
2022/05/06 09:43:19;;;;;;;7.95;6.38;;;24.70;40.10;;;;;;5077040;28;20125;-72
2022/05/06 09:45:46;;;;;;;8.68;7.43;;;24.80;40.30;;;;;;5080580;28;20504;-72
2022/05/06 09:48:14;;;;;;;8.60;7.25;;;24.80;39.80;;;;;;5092955;28;20131;-72
2022/05/06 09:50:47;;;;;;;8.77;6.32;;;24.80;39.80;;;;;;5078623;28;20024;-73
2022/05/06 09:53:17;;;;;;;8.65;6.30;;;24.80;39.90;;;;;;5088928;28;20386;-72
2022/05/06 09:55:45;;;;;;;7.72;6.63;;;24.90;40.30;;;;;;5080621;28;20052;-72
2022/05/06 09:58:15;;;;;;;6.80;5.93;;;25.00;40.10;;;;;;5083440;28;20034;-73
2022/05/06 10:00:41;;;;;;;6.55;5.85;;;25.10;40.20;;;;;;5083378;28;20044;-73
2022/05/06 10:03:09;;;;;;;9.40;5.88;;;25.20;39.80;;;;;;5080227;28;20056;-73
2022/05/06 10:05:37;;;;;;;6.75;6.05;;;25.30;39.70;;;;;;5087736;28;20393;-72
2022/05/06 10:08:05;;;;;;;7.53;5.97;;;25.50;39.50;;;;;;5082529;28;20083;-72
2022/05/06 10:10:38;;;;;;;9.18;5.75;;;25.50;39.10;;;;;;5091530;28;20034;-72
2022/05/06 10:13:09;;;;;;;8.13;6.00;;;25.60;39.30;;;;;;5093319;28;20031;-72
2022/05/06 10:15:35;;;;;;;7.90;6.55;;;25.80;39.20;;;;;;5091507;28;20089;-72
2022/05/06 10:18:02;;;;;;;6.50;5.90;;;25.90;38.90;;;;;;5079861;28;20024;-72
2022/05/06 10:20:36;;;;;;;9.95;6.07;;;26.00;38.70;;;;;;5089248;28;20093;-72
2022/05/06 10:23:12;;;;;;;6.38;5.70;;;26.10;38.60;;;;;;5086296;28;20027;-72
2022/05/06 10:25:41;;;;;;;8.10;6.10;;;26.20;38.50;;;;;;5074592;28;20449;-72
2022/05/06 10:34:12;;;;;;;8.35;6.43;;;26.40;38.00;;;;;;5085652;28;20078;-72
2022/05/06 10:36:48;;;;;;;7.55;5.88;;;26.50;37.90;;;;;;5073630;28;20434;-72
2022/05/06 10:39:24;;;;;;;7.20;5.97;;;26.50;37.70;;;;;;5075367;28;20020;-72
2022/05/06 10:42:06;;;;;;;6.88;5.90;;;26.60;37.70;;;;;;5093211;28;20147;-72
2022/05/06 10:44:36;;;;;;;6.15;5.55;;;26.80;37.50;;;;;;5091282;28;20447;-72
2022/05/06 10:47:23;;;;;;;11.38;6.00;;;26.80;37.00;;;;;;5088648;28;20075;-72
2022/05/06 10:49:53;;;;;;;10.18;5.60;;;26.90;36.70;;;;;;5082312;28;20020;-72
2022/05/06 10:52:32;;;;;;;9.05;6.53;;;27.00;36.90;;;;;;5072909;28;20030;-72
2022/05/06 10:55:00;;;;;;;6.10;5.60;;;27.10;36.50;;;;;;5075145;28;20377;-72
2022/05/06 10:57:43;;;;;;;5.82;5.22;;;27.20;36.80;;;;;;5076405;28;21136;-72
2022/05/06 11:00:09;;;;;;;9.07;5.53;;;27.30;36.50;;;;;;5078225;28;20123;-72
2022/05/06 11:02:37;;;;;;;6.38;5.38;;;27.50;36.30;;;;;;5077214;28;20031;-72
2022/05/06 11:05:08;;;;;;;6.25;5.40;;;27.60;36.20;;;;;;5088231;28;20093;-71
2022/05/06 11:07:36;;;;;;;6.20;4.95;;;27.60;35.90;;;;;;5087401;28;20513;-72
2022/05/06 11:10:09;;;;;;;9.82;5.43;;;27.60;35.50;;;;;;5078400;28;20027;-72
2022/05/06 11:12:35;;;;;;;6.07;5.47;;;27.60;35.60;;;;;;5092512;28;20031;-72
2022/05/06 11:15:06;;;;;;;6.15;5.55;;;27.60;35.60;;;;;;5080404;28;20378;-72
2022/05/06 11:17:33;;;;;;;6.15;5.10;;;27.60;35.40;;;;;;5087301;28;20048;-72
2022/05/06 11:20:16;;;;;;;5.95;5.10;;;27.60;35.40;;;;;;5087072;28;20024;-72
2022/05/06 11:23:09;;;;;;;6.90;6.03;;;27.50;35.50;;;;;;5072394;28;20047;-72
2022/05/06 11:25:36;;;;;;;7.57;5.63;;;27.50;35.80;;;;;;5085263;28;20039;-72
2022/05/06 11:28:08;;;;;;;9.73;5.85;;;27.40;35.20;;;;;;5083479;28;20024;-72
2022/05/06 11:30:34;;;;;;;7.10;5.55;;;27.40;35.50;;;;;;5090190;28;20031;-72
2022/05/06 11:33:03;;;;;;;6.00;5.40;;;27.30;35.60;;;;;;5088191;28;20070;-72
2022/05/06 11:35:46;;;;;;;5.65;5.15;;;27.30;35.90;;;;;;5080060;28;20540;-72
2022/05/06 11:38:13;;;;;;;6.78;6.07;;;27.30;35.80;;;;;;5083565;28;20107;-72
2022/05/06 11:40:39;;;;;;;6.40;5.63;;;27.30;35.30;;;;;;5097321;28;20031;-72
2022/05/06 11:43:06;;;;;;;6.43;5.40;;;27.20;35.50;;;;;;5075284;28;20043;-72
2022/05/06 11:48:20;;;;;;;10.27;6.35;;;27.20;35.40;;;;;;5082193;28;20074;-72
2022/05/06 11:50:48;;;;;;;7.70;5.40;;;27.20;35.60;;;;;;5084613;28;20385;-72
2022/05/06 11:53:18;;;;;;;7.15;5.13;;;27.20;35.50;;;;;;5092279;28;20422;-72
2022/05/06 11:55:46;;;;;;;9.38;5.32;;;27.30;35.60;;;;;;5076043;28;20103;-72
2022/05/06 11:58:14;;;;;;;7.78;5.72;;;27.30;35.40;;;;;;5086606;28;20464;-72
2022/05/06 12:00:41;;;;;;;10.02;5.75;;;27.30;35.20;;;;;;5079160;28;20033;-72
2022/05/06 12:03:09;;;;;;;5.78;5.18;;;27.30;35.20;;;;;;5077589;28;20473;-72
2022/05/06 12:05:39;;;;;;;9.38;5.70;;;27.30;35.10;;;;;;5074188;28;20024;-72
2022/05/06 12:08:05;;;;;;;6.63;6.03;;;27.30;35.00;;;;;;5076004;28;20028;-72
2022/05/06 12:10:34;;;;;;;6.53;5.32;;;27.30;34.90;;;;;;5080633;28;20073;-72
2022/05/06 12:13:09;;;;;;;7.00;5.07;;;27.20;35.10;;;;;;5081362;28;20473;-72
2022/05/06 12:15:40;;;;;;;9.73;5.85;;;27.20;35.50;;;;;;5081785;28;20110;-72
2022/05/06 12:18:11;;;;;;;10.00;5.53;;;27.20;34.80;;;;;;5097037;28;20027;-72
2022/05/06 12:20:41;;;;;;;8.90;5.28;;;27.20;35.30;;;;;;5083637;28;20024;-72
2022/05/06 12:23:11;;;;;;;5.72;4.95;;;27.20;35.60;;;;;;5083078;28;20198;-72
2022/05/06 12:25:39;;;;;;;5.15;4.50;;;27.30;35.50;;;;;;5081559;28;20051;-72
2022/05/06 12:28:11;;;;;;;6.43;5.05;;;27.40;35.20;;;;;;5081270;28;20099;-72
2022/05/06 12:30:38;;;;;;;6.93;5.22;;;27.50;35.00;;;;;;5101442;28;20109;-72
2022/05/06 12:33:14;;;;;;;5.10;4.30;;;27.50;35.10;;;;;;5083918;28;20027;-72
2022/05/06 12:35:59;;;;;;;5.22;4.72;;;27.60;35.10;;;;;;5075957;28;20377;-72
2022/05/06 12:38:48;;;;;;;5.90;5.10;;;27.70;35.30;;;;;;5078490;28;20020;-72
2022/05/06 12:41:21;;;;;;;4.70;4.20;;;27.80;34.80;;;;;;5073198;28;20025;-73
2022/05/06 12:43:48;;;;;;;7.05;4.50;;;27.80;34.10;;;;;;5094474;28;20389;-73
2022/05/06 12:46:26;;;;;;;3.88;3.42;;;27.80;34.30;;;;;;5093966;28;20028;-73
2022/05/06 12:51:41;;;;;;;4.93;4.43;;;27.70;34.60;;;;;;5095987;28;20058;-73
2022/05/06 12:54:09;;;;;;;4.80;4.30;;;27.70;34.50;;;;;;5095664;28;20027;-74
2022/05/06 12:56:36;;;;;;;13.73;4.30;;;27.40;35.20;;;;;;5093565;28;20046;-73
2022/05/06 12:59:02;;;;;;;8.98;5.45;;;27.20;35.70;;;;;;5084006;28;20020;-73
2022/05/06 13:01:27;;;;;;;7.88;5.57;;;27.00;37.40;;;;;;5095280;28;20044;-73
2022/05/06 13:03:53;;;;;;;10.25;6.50;;;26.70;38.50;;;;;;5079575;28;20029;-73
2022/05/06 13:06:19;;;;;;;8.02;5.32;;;26.30;38.70;;;;;;5075212;28;20028;-73
2022/05/06 13:08:45;;;;;;;5.70;4.47;;;26.00;39.10;;;;;;5073714;28;20025;-73
2022/05/06 13:11:11;;;;;;;6.20;4.75;;;25.60;39.70;;;;;;5073594;28;20115;-73
2022/05/06 13:13:37;;;;;;;5.57;4.60;;;25.20;39.90;;;;;;5073466;28;20078;-73
2022/05/06 13:16:03;;;;;;;6.65;4.68;;;24.80;40.70;;;;;;5074525;28;20556;-73
2022/05/06 13:18:30;;;;;;;9.23;4.75;;;24.50;42.00;;;;;;5073866;28;20047;-73
2022/05/06 13:20:56;;;;;;;17.13;6.55;;;24.10;43.50;;;;;;5074826;28;20017;-77
2022/05/06 13:23:22;;;;;;;9.77;5.50;;;23.70;51.00;;;;;;5076745;28;20082;-76
2022/05/06 13:25:48;;;;;;;7.68;5.97;;;23.20;54.00;;;;;;5073974;28;20043;-80
2022/05/06 13:28:15;;;;;;;9.23;5.57;;;22.70;55.90;;;;;;5074711;28;20025;-75
2022/05/06 13:30:41;;;;;;;8.40;6.30;;;22.30;57.50;;;;;;5074501;28;20165;-73
2022/05/06 13:33:07;;;;;;;9.68;6.35;;;21.90;58.70;;;;;;5074716;28;20090;-75
2022/05/06 13:35:33;;;;;;;10.70;6.40;;;21.50;60.00;;;;;;5074527;28;20016;-73